National Weather Service Raw Text Product

Displaying AFOS PIL: TAFFOD Received: 2018-02-09 05:26 UTC


621 
FTUS43 KDMX 090526
TAFFOD
TAF
KFOD 090526Z 0906/1006 04011G16KT 2SM -SN OVC006
      TEMPO 0906/0909 1SM -SN OVC005
     FM091000 03012G18KT 6SM BLSN SCT025 OVC060
     FM091800 02008KT P6SM BKN150=